Terminal Aerodrome Forecast
Issued by NWS Wilmington, OH

Home | Current Version | Previous Version | Text Only | Print | Product List | Glossary On
Versions: 1 2 3 4 5 6 7 8 9 10 11 12 13 14 15 16 17 18
000
FTUS41 KILN 311720
TAFILN
TAF
KILN 311720Z 3118/0118 06005KT P6SM SCT070 BKN250
     FM010000 06003KT P6SM SCT150 BKN200
     FM011300 15006KT P6SM BKN150=

USA.gov is the U.S. government's official web portal to all federal, state and local government web resources and services.